Tiempo atmosférico en la estación meteorológica de Tomelloso, Ciudad Real (662 m.)



Fecha
DESCASC
Temp. máxima en grados centígrados (hora)
DESCASC
Temp. mínima en grados centígrados (hora)
DESCASC
Temp. media en grados centígrados
DESCASC
Racha de viento máxima en m/sg (hora)
DESCASC
Velocidad máxima media en intervalos de 10 minutos(hora)
DESCASC
Precipitaciones diarias en mm
DESCASC
Precipitaciones de 00:00 a 06:00 en mm
DESCASC
Precipitaciones de 06:00 a 12:00 en mm
DESCASC
Precipitaciones de 12:00 a 18:00 en mm
DESCASC
Precipitaciones de 18:00 a 24:00 en mm
DESCASC
22-04-2019 17.1 (18:00) 7.9 (06:40) 12.5 -- (--) -- (--) 6.2 5.6 0.6 0 0
21-04-2019 11.3 (14:20) 7.3 (07:40) 9.3 10 (11:20) 5.83 (03:50) 1.6 0.2 0 0.2 1.2
20-04-2019 12.1 (11:50) 7.5 (00:00) 9.8 -- (--) -- (--) 18.2 14.8 0.6 2.8 0
19-04-2019 10.6 (13:10) 7.4 (23:40) 9 10.28 (15:40) 7.5 (15:40) 19.8 0.2 0.2 4.8 14.6
18-04-2019 17.4 (00:00) 8.7 (00:00) 13 -- (--) -- (--) 37.2 13.2 21 2.6 0.4
17-04-2019 27.7 (16:20) 8.4 (00:00) 18.1 -- (--) -- (--) 0 0 0 0 0
16-04-2019 24.2 (18:50) 8.6 (00:00) 16.4 8.89 (16:50) 5.83 (20:00) 0 0 0 0 0
15-04-2019 26.2 (15:50) 9 (00:00) 17.6 13.61 (16:30) 7.5 (16:40) 0 0 0 0 0
14-04-2019 24.2 (16:30) 9.6 (00:00) 16.9 9.17 (20:20) 5 (17:00) 0 0 0 0 0
13-04-2019 22.2 (17:50) 3.2 (00:00) 12.7 6.94 (23:30) 3.33 (15:00) 0 0 0 0 0
12-04-2019 19.4 (18:30) 1.8 (00:00) 10.6 14.72 (16:40) 3.33 (17:40) 0 0 0 0 0
11-04-2019 18 (18:20) 2.8 (00:00) 10.4 15.28 (14:20) 6.11 (19:40) 0 0 0 0 0
10-04-2019 14.8 (14:10) 4.6 (00:00) 9.7 14.44 (16:10) 5 (15:50) 2.4 0 0 0 2.4
09-04-2019 13.3 (16:00) 5.3 (00:00) 9.3 15.56 (18:00) 7.5 (18:10) 2.4 0 0 2.4 0
08-04-2019 16.1 (18:40) 9.2 (00:00) 12.7 18.61 (10:20) 6.39 (17:10) 1.6 0.2 1.4 0 0
07-04-2019 12.8 (17:00) 5.1 (00:00) 9 13.06 (15:20) 6.11 (14:30) 0 0 0 0 0
06-04-2019 11.3 (16:50) 4.1 (00:00) 7.7 15.56 (17:50) 7.5 (17:40) 2 0.2 0.6 1.2 0
05-04-2019 10.7 (00:00) 4.2 (00:00) 7.4 -- (--) -- (--) -- 0 -- 2.4 0
04-04-2019 16.2 (17:40) -0.2 (00:00) 8 6.94 (17:30) 3.89 (23:30) 0 0 0 0 0
03-04-2019 19.3 (15:50) 8.3 (00:00) 13.8 -- (--) -- (--) 0 0 0 0 0
02-04-2019 18.2 (17:40) 7.4 (00:00) 12.8 -- (--) -- (--) 0 0 0 0 0
01-04-2019 16.2 (14:50) 7.3 (00:00) 11.8 -- (--) -- (--) 8 0.4 0 4.8 2.8
31-03-2019 10.8 (17:00) 6.6 (00:00) 8.7 15.83 (17:40) 7.5 (10:50) 4.8 0 3.8 1 0
30-03-2019 19.3 (17:10) 4.3 (00:00) 11.8 15 (19:20) 7.5 (15:10) 0 0 0 0 0
29-03-2019 17.7 (14:00) 1.6 (00:00) 9.7 15 (11:20) 8.89 (17:50) 0 0 0 0 0
28-03-2019 18.7 (15:30) -2.1 (-00:0) 8.3 16.11 (16:30) 7.5 (15:40) 0 0 0 0 0
27-03-2019 17.5 (16:50) 1.7 (00:00) 9.6 11.67 (00:40) 7.78 (00:50) 0 0 0 0 0
26-03-2019 20.2 (15:50) 3.1 (00:00) 11.7 17.5 (18:30) 10.83 (12:10) 0 0 0 0 0
25-03-2019 21.4 (16:20) 0.8 (00:00) 11.1 9.17 (14:40) 5.56 (15:10) 0 0 0 0 0

Gráficas

Temp. máximas Temp. mínimas Temp. medias Precipitaciones Rachas de viento máximas Velocidades máximas media en intervalos de 10 minutos

Datos horarios

Fecha y hora oficial Temperatura (ºC) Velocidad del viento (km/h) Dirección del viento Racha (km/h) Dirección de racha Precipitación (mm) Presión (hPa) Tendencia (hPa) Humedad (%)
2019-04-23 23:00:00 6.6 13 Sudoeste 31 Sudoeste 0 928.8 3 82
2019-04-23 22:00:00 7 18 Sudoeste 39 Sudoeste 0 928 2.5 78
2019-04-23 21:00:00 7.9 17 Sudoeste 35 Sudoeste 0 926.9 2.2 77
2019-04-23 20:00:00 10.5 14 Oeste -- -- 0 925.8 1.6 62
2019-04-23 19:00:00 11.5 -- -- -- -- 0 925.5 1.3 55
2019-04-23 18:00:00 11.5 -- -- -- -- 0 924.7 0.2 56
2019-04-23 17:00:00 13.8 -- -- -- -- 0 924.2 -0.7 42
2019-04-23 16:00:00 12.8 -- -- -- -- 0.2 924.2 0 53
2019-04-23 15:00:00 11.1 15 Oeste -- -- 0 924.5 0.3 67
2019-04-23 14:00:00 8.9 16 Oeste -- -- 0 924.9 0.7 72
2019-04-23 13:00:00 10.6 16 Oeste -- -- 0 924.2 0.9 83
2019-04-23 12:00:00 10.1 11 Sudoeste 25 Oeste 0.6 924.2 1.3 88
2019-04-23 11:00:00 8.6 13 Oeste 32 Oeste 2.6 924.2 1.3 93
2019-04-23 10:00:00 10.6 9 Sudoeste -- -- 0 923.3 0.4 86
2019-04-23 09:00:00 10.8 13 Sudoeste 31 Sudoeste 0 922.9 -0.3 81
2019-04-23 08:00:00 10.3 10 Sudoeste 25 Sudoeste 0 922.9 -0.7 81
2019-04-23 07:00:00 10.4 11 Sudoeste 30 Sudoeste 0 922.9 -0.7 80
2019-04-23 06:00:00 10.5 -- -- -- -- 0 923.2 -1.1 82
2019-04-23 05:00:00 10.8 -- -- -- -- 0 923.6 -1.1 81
2019-04-23 04:00:00 11 -- -- -- -- 0 923.6 -1.1 80
2019-04-23 03:00:00 11.3 -- -- -- -- 0 924.3 -0.6 80
2019-04-23 02:00:00 11.8 15 Sudoeste 31 Sudoeste 0 924.7 -0.5 78
2019-04-23 01:00:00 12.1 15 Sudoeste 27 Sur 0 924.7 -0.4 77
2019-04-23 00:00:00 11.6 10 Sur 17 Sur 0 924.9 -0.1 80
2019-04-22 23:00:00 11.9 11 Sur -- -- 0 925.2 0.1 78
2019-04-22 22:00:00 13.6 -- -- -- -- 0 925.1 -0.2 73
2019-04-22 21:00:00 14.4 6 Sudoeste 19 Sudoeste 0 925 -0.4 66
2019-04-22 20:00:00 15.9 9 Sudoeste 24 Sudoeste 0 925.1 -0.7 55
2019-04-22 19:00:00 16.2 10 Oeste 55 Noroeste 0 925.3 -1.2 54
2019-04-22 18:00:00 16.9 12 Oeste 30 Oeste 0 925.4 -1.7 53
2019-04-22 17:00:00 15 14 Oeste 25 Oeste 0 925.8 -1.8 59
2019-04-22 16:00:00 14.6 7 Oeste 25 Oeste 0 926.5 -1.7 66
2019-04-22 15:00:00 13.4 8 Oeste 24 Oeste 0 927.1 -1.5 68
2019-04-22 14:00:00 13.4 9 Oeste 26 Oeste 0 927.6 -1.2 70
2019-04-22 13:00:00 12.6 8 Oeste 20 Oeste 0 928.2 -0.5 78
2019-04-22 12:00:00 11 9 Oeste 19 Noroeste 0 928.6 -0.1 86
2019-04-22 11:00:00 9.7 8 Oeste 15 Oeste 0 928.8 0.1 93
2019-04-22 10:00:00 9.3 5 Oeste 12 Oeste 0.2 928.7 0.1 97
2019-04-22 09:00:00 8.2 5 Oeste 9 Oeste 0 928.7 -0.2 98
2019-04-22 08:00:00 7.9 4 Oeste 9 Oeste 0.2 928.7 -0.8 98
2019-04-22 07:00:00 7.9 3 Noroeste 8 Noroeste 0.2 928.6 -1.5 98
2019-04-22 06:00:00 8 3 Noroeste 8 Noroeste 0.2 928.9 -2.2 98
2019-04-22 05:00:00 8 3 Noroeste 6 Norte 0.4 929.5 -2.2 98
2019-04-22 04:00:00 8 2 Norte 6 Nordeste 1 930.1 -2 97
2019-04-22 03:00:00 8.2 3 Nordeste 6 Este 2 931.1 -1.4 97
2019-04-22 02:00:00 8.4 5 Este 11 Este 1.6 931.7 -1.2 97
2019-04-22 01:00:00 8.4 6 Nordeste 9 Nordeste 0.4 932.1 -0.8 96
2019-04-22 00:00:00 8.4 3 Norte 7 Norte 0.2 932.5 0 96
2019-04-21 23:00:00 8.6 3 Norte 10 Norte 0.6 932.9 0.5 95
2019-04-21 22:00:00 9 5 Norte 17 Nordeste 0.4 932.9 0.3 92
2019-04-21 21:00:00 9.7 6 Norte 20 Norte 0 932.5 -0.5 87
2019-04-21 20:00:00 10.1 8 Norte 19 Norte 0 932.4 -0.8 85
2019-04-21 19:00:00 10.2 7 Norte 16 Norte 0 932.6 -0.9 85
2019-04-21 18:00:00 10.3 9 Norte 99 Este 0.2 933 -0.6 84
2019-04-21 17:00:00 10.5 11 Nordeste 28 Nordeste 0 933.2 -0.6 82
2019-04-21 16:00:00 10.5 13 Norte 21 Nordeste 0 933.5 -1.2 80
2019-04-21 15:00:00 11 12 Nordeste 24 Nordeste 0 933.6 -1.4 74
2019-04-21 14:00:00 11.1 15 Nordeste 27 Nordeste 0 933.8 -1.3 71
2019-04-21 13:00:00 10.8 18 Nordeste 26 Nordeste 0 934.7 -0.6 73
2019-04-21 12:00:00 10.2 15 Nordeste 36 Nordeste 0 935 -0.3 80
2019-04-21 11:00:00 9.2 14 Nordeste 22 Nordeste 0 935.1 -0.4 81
2019-04-21 10:00:00 8.5 13 Nordeste 23 Norte 0 935.3 -0.5 85
2019-04-21 09:00:00 7.6 14 Norte 23 Norte 0 935.3 -1 90
2019-04-21 08:00:00 7.4 13 Norte 20 Norte 0 935.5 -1.2 91
2019-04-21 07:00:00 7.4 11 Nordeste 16 Nordeste 0 935.8 -1.4 91
2019-04-21 06:00:00 7.5 10 Nordeste 23 Nordeste 0 936.3 -2 88
2019-04-21 05:00:00 7.6 14 Nordeste 26 Nordeste 0 936.7 -2.3 86
2019-04-21 04:00:00 7.8 20 Nordeste 29 Nordeste 0 937.2 -2.3 84
2019-04-21 03:00:00 7.8 15 Nordeste 22 Nordeste 0.2 938.3 -1.7 88
2019-04-21 02:00:00 8.3 15 Nordeste 25 Nordeste 0 939 -1.1 85
2019-04-21 01:00:00 8.1 12 Nordeste 18 Nordeste 0 939.5 -0.4 89
2019-04-21 00:00:00 8.4 15 Nordeste 27 Nordeste 0 940 0.5 88
2019-04-20 23:00:00 8.8 16 Nordeste 27 Nordeste 0 940.1 0.9 87
2019-04-20 22:00:00 9.4 10 Nordeste -- -- 0 939.9 0.5 89
2019-04-20 21:00:00 10 20 Nordeste 32 Nordeste 0 939.5 0.7 82
2019-04-20 20:00:00 10.5 26 Nordeste 41 Este 0 939.2 -0.3 80
2019-04-20 19:00:00 10.7 31 Este -- -- 0 939.4 -0.2 80
2019-04-20 18:00:00 9.9 30 Nordeste -- -- 0 938.8 -0.5 85
2019-04-20 17:00:00 9.7 37 Este -- -- 0.6 939.5 0.2 84
2019-04-20 16:00:00 9.8 27 Este 38 Este 2 939.6 0.5 89
2019-04-20 15:00:00 11.7 21 Este 33 Este 0 939.3 0.4 78
2019-04-20 14:00:00 12 25 Nordeste 37 Este 0.2 939.3 0.8 74
2019-04-20 13:00:00 11.6 19 Este 31 Este 0 939.1 1.5 76
2019-04-20 12:00:00 11.9 18 Este 37 Este 0 938.9 1 77
2019-04-20 11:00:00 10.5 12 Nordeste 24 Nordeste 0.2 938.5 0.6 84
2019-04-20 10:00:00 9.7 10 Norte 33 Nordeste 0.2 937.6 1.2 87
2019-04-20 09:00:00 8.6 10 Norte 29 Nordeste 0 937.9 -0.2 92
2019-04-20 08:00:00 8.1 8 Norte 24 Norte 0 937.9 -0.7 95
2019-04-20 07:00:00 8 14 Norte 28 Norte 0.2 936.4 -3.1 97
2019-04-20 06:00:00 8.3 13 Norte 26 Norte 0.2 938.1 -2.3 98
2019-04-20 05:00:00 7.9 9 Norte 18 Noroeste 0.8 938.6 -3.2 98
2019-04-20 04:00:00 7.9 7 Norte 25 Norte 3.4 939.5 -2.4 99
2019-04-20 03:00:00 7.7 13 Norte 24 Norte 4.6 940.4 -1.5 99
2019-04-20 02:00:00 7.6 16 Nordeste 24 Nordeste 5.4 941.8 -0.1 98
2019-04-20 01:00:00 7.6 12 Nordeste 19 Nordeste 0.4 941.9 0.3 98
2019-04-20 00:00:00 7.5 12 Nordeste 19 Nordeste 1.8 941.9 0.9 97
2019-04-19 23:00:00 7.6 13 Nordeste 28 Nordeste 0.8 941.9 1.1 97
2019-04-19 22:00:00 7.6 19 Nordeste 25 Nordeste 4 941.6 1.2 97
2019-04-19 21:00:00 7.7 14 Nordeste 19 Nordeste 2.4 941 1.1 96
2019-04-19 20:00:00 7.9 12 Este 22 Este 3.4 940.8 1.3 95
2019-04-19 19:00:00 8.2 16 Este 27 Nordeste 2.2 940.4 1 95
2019-04-19 18:00:00 8.4 23 Nordeste 31 Nordeste 1.6 939.9 0.9 95
2019-04-19 17:00:00 8.7 21 Nordeste 35 Nordeste 1.6 939.5 0.1 94
2019-04-19 16:00:00 9.2 25 Nordeste 37 Nordeste 0.8 939.4 0.2 90
2019-04-19 15:00:00 10.3 15 Norte 23 Norte 0.4 939 -0.5 93
2019-04-19 14:00:00 10.5 7 Nordeste 12 Nordeste 0.4 939.4 0.3 88
2019-04-19 13:00:00 10.5 7 Sur 13 Sudeste 0 939.2 0.4 83
2019-04-19 12:00:00 10.1 9 Este 15 Este 0.2 939.5 1 86
2019-04-19 11:00:00 10.3 10 Este 24 Este 0 939.1 1 87
2019-04-19 10:00:00 9.9 7 Sudeste 12 Este 0 938.8 1.3 88
2019-04-19 09:00:00 9.3 7 Este 18 Sudeste 0 938.5 1.2 89
2019-04-19 08:00:00 9.2 4 Sudeste 6 Sur 0 938.1 0.8 92
2019-04-19 07:00:00 9.2 2 Sur 10 Sur 0 937.5 0.3 91
2019-04-19 06:00:00 9.2 5 Sur 10 Sur 0 937.3 0.1 92
2019-04-19 05:00:00 9.1 6 Sur 13 Sur 0 937.3 -0.1 92
2019-04-19 04:00:00 9.3 9 Sur 16 Sudoeste 0 937.2 0.1 91
2019-04-19 03:00:00 9.4 6 Sur 17 Sudoeste 0 937.2 0.2 91
2019-04-19 02:00:00 9.8 7 Sudoeste 11 Sur 0 937.4 0.5 90
2019-04-19 01:00:00 9.7 4 Sudoeste 13 Sudoeste 0.2 937.1 0.8 90
2019-04-19 00:00:00 9.7 5 Sudoeste 13 Sudoeste 0 937 1.4 92
2019-04-18 23:00:00 9.9 5 Oeste -- -- 0 936.9 1.8 92
2019-04-18 22:00:00 10.3 4 Sudeste 9 Sur 0 936.3 1.3 92
2019-04-18 21:00:00 10.6 8 Nordeste 11 Este 0 935.6 1 90
2019-04-18 20:00:00 11 4 Nordeste 76 Nordeste 0 935.1 0.3 85
2019-04-18 19:00:00 11.1 3 Norte 11 Nordeste 0.4 935 -0.6 85
2019-04-18 18:00:00 12 6 Norte -- -- 0 934.6 -1.5 75
2019-04-18 17:00:00 12.2 5 Nordeste -- -- 0 934.8 -2 78
2019-04-18 16:00:00 11.4 -- -- -- -- 0 935.6 -1.7 81
2019-04-18 15:00:00 10.3 11 Este 21 Este 0.2 936.1 -2.1 86
2019-04-18 14:00:00 9.8 10 Sudeste 18 Este 0.4 936.8 -1.4 88
2019-04-18 13:00:00 9.1 8 Este 12 Este 2 937.3 -0.7 92
2019-04-18 12:00:00 8.9 8 Nordeste -- -- 4 938.2 1.1 92
2019-04-18 11:00:00 9.2 0 Calma -- -- 3 938.2 1.9 92
2019-04-18 10:00:00 9.8 8 Este 19 Este 4.4 938 1.8 96
2019-04-18 09:00:00 9.8 13 Este 18 Este 2.6 937.1 1 96
2019-04-18 08:00:00 9.8 8 Oeste 22 Este 4.6 936.3 -0.1 95
2019-04-18 07:00:00 10.7 16 Este 25 Este 2.4 936.2 -1 96
2019-04-18 06:00:00 12.1 10 Sudeste 25 Este 4.6 936.1 -2 93
2019-04-18 05:00:00 11.7 17 Este 23 Este 4.6 936.4 -2 97
2019-04-18 04:00:00 11.9 9 Nordeste 16 Nordeste 1.8 937.2 -1.2 95
2019-04-18 03:00:00 12.3 4 Nordeste 14 Nordeste 1.6 938.1 0.1 93
2019-04-18 02:00:00 13.4 8 Nordeste -- -- 0.6 938.4 1.6 85
2019-04-18 01:00:00 16.7 -- -- -- -- 0 938.4 2.3 60
2019-04-18 00:00:00 17.4 7 Oeste -- -- 0 938 3.4 55
2019-04-17 23:00:00 17.9 -- -- -- -- 0 936.8 2.8 51
2019-04-17 22:00:00 18.8 10 Oeste 20 Oeste 0 936.1 3.8 48
2019-04-17 21:00:00 20.2 16 Oeste 68 Noroeste 0 934.6 2.4 39
2019-04-17 20:00:00 21.3 17 Oeste -- -- 0 934 1.7 36
2019-04-17 19:00:00 24.6 18 Sudeste 38 Sudeste 0 932.3 -0.9 29
2019-04-17 18:00:00 25.4 24 Sudeste 47 Este 0 932.2 -2 29
2019-04-17 17:00:00 24.9 34 Este 52 Este 0 932.3 -2.8 33
2019-04-17 16:00:00 26.1 33 Este 46 Nordeste 0 933.2 -2.5 28
2019-04-17 15:00:00 25.2 24 Este 44 Este 0 934.2 -2.2 33
2019-04-17 14:00:00 24.7 16 Sudeste 43 Nordeste 0 935.1 -1.6 33
2019-04-17 13:00:00 21.9 32 Este 43 Este 0 935.7 -1 43
2019-04-17 12:00:00 20.6 26 Este 40 Este 0 936.4 -0.6 46
2019-04-17 11:00:00 17 29 Este 39 Este 0 936.7 -0.7 58
2019-04-17 10:00:00 14.7 22 Este 32 Este 0 936.7 -0.8 64
2019-04-17 09:00:00 10.8 18 Este 24 Este 0 937 -0.9 79
2019-04-17 08:00:00 8.6 15 Este 21 Este 0 937.4 -0.8 87
2019-04-17 07:00:00 8.9 15 Este 22 Este 0 937.5 -1 88
2019-04-17 06:00:00 9.4 14 Este 21 Sudeste 0 937.9 -1 87
2019-04-17 05:00:00 10 13 Este 24 Este 0 938.2 -1.1 86
2019-04-17 04:00:00 10.6 14 Este 22 Este 0 938.5 -0.6 84
2019-04-17 03:00:00 11 16 Este 21 Este 0 938.9 0.3 83
2019-04-17 02:00:00 11.6 14 Este 20 Este 0 939.3 0.8 81
2019-04-17 01:00:00 12.9 14 Este 23 Este 0 939.1 0.9 75
2019-04-17 00:00:00 14.8 18 Este 26 Este 0 938.6 0.8 67
2019-04-16 23:00:00 15.9 11 Este 24 Sudeste 0 938.5 0.8 57
2019-04-16 22:00:00 17.7 13 Este 18 Este 0 938.2 0.4 42
2019-04-16 21:00:00 20.6 9 Este 22 Este 0 937.8 -0.7 28
2019-04-16 20:00:00 22.7 21 Este 74 Sudeste 0 937.7 -1.7 24
2019-04-16 19:00:00 24.2 7 Este 23 Nordeste 0 937.8 -2.6 14
2019-04-16 18:00:00 23.8 5 Sudeste 22 Sur 0 938.5 -2.5 19
2019-04-16 17:00:00 23 10 Este 32 Sudeste 0 939.4 -2.1 21
2019-04-16 16:00:00 22.2 14 Este 23 Este 0 940.4 -1.8 24
2019-04-16 15:00:00 20.7 7 Este 23 Este 0 941 -1.9 26
2019-04-16 14:00:00 19.4 8 Este 25 Este 0 941.5 -1.5 31
2019-04-16 13:00:00 17.9 12 Este 60 Este 0 942.2 -0.6 38
2019-04-16 12:00:00 16.3 15 Este 31 Este 0 942.9 0.6 46
2019-04-16 11:00:00 14.7 7 Este 27 Este 0 943 0.9 59
2019-04-16 10:00:00 13 5 Este 10 Este 0 942.8 1.1 66
2019-04-16 09:00:00 10.4 2 Sudeste 12 Sur 0 942.3 0.5 79
2019-04-16 08:00:00 8.7 4 Sudoeste 11 Sudoeste 0 942.1 0 84
2019-04-16 07:00:00 9.2 6 Oeste 14 Oeste 0 941.7 -0.1 83
2019-04-16 06:00:00 10 9 Oeste 19 Oeste 0 941.8 0.4 80
2019-04-16 05:00:00 10.8 7 Oeste 16 Oeste 0 942.1 0.2 75
2019-04-16 04:00:00 11.3 7 Sudoeste 17 Oeste 0 941.8 0.2 73
2019-04-16 03:00:00 11.7 8 Oeste 17 Oeste 0 941.4 0.5 72
2019-04-16 02:00:00 13 8 Oeste 22 Oeste 0 941.9 2.1 69
2019-04-16 01:00:00 14.6 8 Oeste 21 Oeste 0 941.6 3.1 61
2019-04-16 00:00:00 15.8 9 Oeste 31 Oeste 0 940.9 4 58
2019-04-15 23:00:00 16.9 13 Oeste 38 Oeste 0 939.8 3.8 51
2019-04-15 22:00:00 18.6 16 Oeste 33 Oeste 0 938.5 3 42
2019-04-15 21:00:00 20.3 12 Oeste 36 Oeste 0 936.9 1.4 41
2019-04-15 20:00:00 22.7 22 Sudoeste 47 Sudoeste 0 936 0.4 23
2019-04-15 19:00:00 24.5 22 Sudoeste 49 Sudoeste 0 935.5 -0.6 20
2019-04-15 18:00:00 25.5 24 Sudoeste 48 Sudoeste 0 935.5 -0.8 17
2019-04-15 17:00:00 26.1 24 Sudoeste 49 Sudoeste 0 935.6 -1.5 17
2019-04-15 16:00:00 26.1 21 Sudoeste 44 Sudoeste 0 936.1 -1.6 19
2019-04-15 15:00:00 25.3 22 Sudoeste 44 Sudoeste 0 936.3 -1.8 21
2019-04-15 14:00:00 24.4 16 Sudoeste 34 Sur 0 937.1 -0.7 30
2019-04-15 13:00:00 23.4 11 Sudoeste 28 Oeste 0 937.7 -0.1 35
2019-04-15 12:00:00 21.3 10 Sudoeste 21 Sur 0 938.1 -0.4 43
2019-04-15 11:00:00 19.7 3 Sudoeste 24 Oeste 0 937.8 -0.5 57
2019-04-15 10:00:00 14.6 8 Nordeste 21 Nordeste 0 937.8 -0.4 74
2019-04-15 09:00:00 13.7 0 Calma 9 Sudeste 0 938.5 0.1 76
2019-04-15 08:00:00 9.2 2 Nordeste 6 Este 0 938.3 -0.5 86
2019-04-15 07:00:00 11.7 4 Sur 12 Sur 0 938.2 -1.1 78
2019-04-15 06:00:00 12.6 5 Sur 12 Sur 0 938.4 -1.4 78
2019-04-15 05:00:00 12.7 7 Sur 11 Sur 0 938.8 -1.2 78
2019-04-15 04:00:00 13.1 5 Sur 9 Sur 0 939.3 -1.2 76
2019-04-15 03:00:00 14.3 6 Sur 11 Sur 0 939.8 -0.7 70
2019-04-15 02:00:00 14 4 Sur 12 Sur 0 940 -0.5 71
2019-04-15 01:00:00 15.8 6 Sudoeste 11 Sudoeste 0 940.5 0.3 63
2019-04-15 00:00:00 16.1 6 Sudoeste 17 Sudoeste 0 940.5 0.7 61
2019-04-14 23:00:00 17.2 8 Oeste 21 Oeste 0 940.5 1 57
2019-04-14 22:00:00 18.1 10 Oeste 23 Oeste 0 940.2 0.8 53
2019-04-14 21:00:00 19.4 10 Oeste 33 Oeste 0 939.8 0.3 48
2019-04-14 20:00:00 21 15 Oeste 30 Oeste 0 939.5 -0.3 43
2019-04-14 19:00:00 22.6 16 Oeste 33 Sudoeste 0 939.4 -1.2 39
2019-04-14 18:00:00 23.6 14 Oeste 32 Oeste 0 939.5 -1.6 36
2019-04-14 17:00:00 23.1 18 Oeste 28 Oeste 0 939.8 -1.6 38
2019-04-14 16:00:00 23.6 10 Oeste 28 Oeste 0 940.6 -1.3 39
2019-04-14 15:00:00 22.5 12 Oeste 26 Oeste 0 941.1 -1.4 39
2019-04-14 14:00:00 21 13 Oeste 30 Oeste 0 941.4 -1.2 42
2019-04-14 13:00:00 19.7 10 Sudoeste 23 Sudoeste 0 941.9 -0.3 44
2019-04-14 12:00:00 17.8 11 Oeste 23 Oeste 0 942.5 0.3 52
2019-04-14 11:00:00 16 10 Oeste 18 Oeste 0 942.6 0.7 53
2019-04-14 10:00:00 14.1 6 Sudoeste 17 Sudoeste 0 942.2 0.5 55
2019-04-14 09:00:00 11.5 8 Sudoeste 14 Sudoeste 0 942.2 0.2 59
2019-04-14 08:00:00 9.9 8 Sudoeste 13 Sudoeste 0 941.9 -0.2 62
2019-04-14 07:00:00 10.4 7 Sudoeste 14 Sudoeste 0 941.7 -0.4 58
2019-04-14 06:00:00 10.9 8 Sudoeste 17 Sudoeste 0 942 -0.1 55
2019-04-14 05:00:00 10.9 9 Sudoeste 17 Sudoeste 0 942.1 -0.5 55
2019-04-14 04:00:00 11.7 8 Sudoeste 16 Sudoeste 0 942.1 -0.8 51
2019-04-14 03:00:00 11.8 8 Sudoeste 17 Sudoeste 0 942.1 -0.8 53
2019-04-14 02:00:00 12.7 7 Sudoeste 18 Sudoeste 0 942.6 0 52
2019-04-14 01:00:00 13 8 Sudoeste 18 Sudoeste 0 942.9 0.9 51
2019-04-14 00:00:00 14.4 9 Oeste 25 Oeste 0 942.9 1.7 46
2019-04-13 23:00:00 14.6 6 Sudoeste 18 Noroeste 0 942.6 1.7 47
2019-04-13 22:00:00 16.8 12 Oeste 23 Oeste 0 942 1.2 39
2019-04-13 21:00:00 18.6 6 Oeste 15 Oeste 0 941.2 0.2 29
2019-04-13 20:00:00 20.2 9 Oeste 19 Noroeste 0 940.9 -0.4 23
2019-04-13 19:00:00 21.6 8 Oeste 24 Oeste 0 940.8 -1 23
2019-04-13 18:00:00 21.9 8 Oeste 22 Oeste 0 941 -1.2 19
2019-04-13 17:00:00 21.5 8 Oeste 20 Oeste 0 941.3 -1.3 19
2019-04-13 16:00:00 20.7 7 Oeste 24 Oeste 0 941.8 -1.3 21
2019-04-13 15:00:00 19.5 12 Oeste 23 Oeste 0 942.2 -1.3 23
2019-04-13 14:00:00 19.3 5 Noroeste 22 Noroeste 0 942.6 -0.9 26
2019-04-13 13:00:00 18 6 Noroeste 16 Oeste 0 943.1 -0.2 31
2019-04-13 12:00:00 15.9 6 Oeste 15 Oeste 0 943.5 0.5 34
2019-04-13 11:00:00 13.9 4 Noroeste 11 Noroeste 0 943.5 1.2 39
2019-04-13 10:00:00 10.7 4 Sur 6 Sur 0 943.3 1.3 51
2019-04-13 09:00:00 6.2 3 Sudoeste 6 Sur 0 943 1.3 70
2019-04-13 08:00:00 3.2 6 Sur 7 Sur 0 942.3 0.6 77
2019-04-13 07:00:00 4.9 4 Sudoeste 6 Sudoeste 0 942 0.3 73
2019-04-13 06:00:00 5.9 3 Oeste 7 Sudoeste 0 941.7 -0.2 65
2019-04-13 05:00:00 6.5 3 Oeste 10 Oeste 0 941.7 -0.4 62
2019-04-13 04:00:00 6.9 4 Sudoeste 8 Sudoeste 0 941.7 -0.2 63
2019-04-13 03:00:00 8 6 Sudoeste 10 Sudoeste 0 941.9 0.4 58
2019-04-13 02:00:00 8.9 6 Sudoeste 15 Sudoeste 0 942.1 0.7 53
2019-04-13 01:00:00 9.1 5 Sudoeste 11 Sudoeste 0 941.9 1.1 54
2019-04-13 00:00:00 9.9 6 Sudoeste 10 Sudoeste 0 941.5 1.2 49
2019-04-12 23:00:00 11.1 6 Sudoeste 8 Sur 0 941.4 1.5 47
2019-04-12 22:00:00 12 2 Sudeste 9 Norte 0 940.8 0.8 40
2019-04-12 21:00:00 14.9 8 Norte 24 Norte 0 940.3 0.1 33
2019-04-12 20:00:00 16.9 9 Noroeste 21 Norte 0 939.9 -0.4 29
2019-04-12 19:00:00 18.4 7 Noroeste 25 Noroeste 0 940 -1.1 24
2019-04-12 18:00:00 19.1 11 Noroeste 31 Noroeste 0 940.2 -1.5 24
2019-04-12 17:00:00 18.9 9 Noroeste 53 Noroeste 0 940.3 -1.7 26
2019-04-12 16:00:00 18.1 10 Noroeste 30 Oeste 0 941.1 -1.3 29
2019-04-12 15:00:00 16.9 11 Noroeste 27 Noroeste 0 941.7 -1.1 32
2019-04-12 14:00:00 15.6 10 Noroeste 28 Noroeste 0 942 -0.9 35
2019-04-12 13:00:00 14.5 8 Noroeste 23 Norte 0 942.4 -0.2 42
2019-04-12 12:00:00 11.8 8 Noroeste 20 Norte 0 942.8 0.2 51
2019-04-12 11:00:00 10.2 9 Norte 16 Norte 0 942.9 0.5 56
2019-04-12 10:00:00 8.5 3 Nordeste 7 Norte 0 942.6 0.5 60
2019-04-12 09:00:00 4.3 4 Sudoeste 6 Sur 0 942.6 0.7 79
2019-04-12 08:00:00 2.3 3 Oeste 6 Oeste 0 942.4 0.6 83
2019-04-12 07:00:00 2 4 Oeste 7 Oeste 0 942.1 0.2 84
2019-04-12 06:00:00 2 2 Sudoeste 6 Oeste 0 941.9 -0.2 83
2019-04-12 05:00:00 3.8 4 Oeste 10 Oeste 0 941.8 -0.4 77
2019-04-12 04:00:00 4 4 Sudoeste 6 Sudoeste 0 941.9 0 79
2019-04-12 03:00:00 4.6 2 Sudoeste 6 Oeste 0 942.1 0.3 76
2019-04-12 02:00:00 5.9 3 Oeste 9 Oeste 0 942.2 0.7 68
2019-04-12 01:00:00 6.5 3 Noroeste 12 Norte 0 941.9 0.8 66
2019-04-12 00:00:00 7.7 5 Norte 13 Norte 0 941.8 1.3 61
2019-04-11 23:00:00 8.5 6 Norte 13 Norte 0 941.5 1.3 58
2019-04-11 22:00:00 10.4 5 Norte 15 Noroeste 0 941.1 0.9 49
2019-04-11 21:00:00 12.2 8 Noroeste 17 Norte 0 940.5 0.5 39
2019-04-11 20:00:00 14 8 Norte 40 Norte 0 940.2 -0.1 33
2019-04-11 19:00:00 15.6 12 Noroeste 28 Noroeste 0 940.2 -0.5 31
2019-04-11 18:00:00 17.7 13 Noroeste 29 Noroeste 0 940 -1.1 25
2019-04-11 17:00:00 17.3 14 Norte 33 Norte 0 940.3 -1.2 27
2019-04-11 16:00:00 16.3 12 Norte 33 Norte 0 940.7 -1.3 37
2019-04-11 15:00:00 14.9 14 Norte 55 Este 0 941.1 -1.1 41
2019-04-11 14:00:00 14.1 13 Norte 28 Norte 0 941.5 -0.6 52
2019-04-11 13:00:00 12.8 13 Norte 30 Norte 0 942 0 58
2019-04-11 12:00:00 11.2 14 Norte 30 Norte 0 942.2 0.3 65
2019-04-11 11:00:00 9.8 14 Norte 25 Norte 0 942.1 0.8 69
2019-04-11 10:00:00 7.3 6 Noroeste 14 Noroeste 0 942 1.2 78
2019-04-11 09:00:00 4.5 6 Oeste 11 Oeste 0 941.9 1.1 86
2019-04-11 08:00:00 2.8 4 Oeste 14 Oeste 0 941.3 0.7 94
2019-04-11 07:00:00 3.3 6 Oeste 17 Oeste 0 940.8 0.4 93
2019-04-11 06:00:00 3.9 7 Oeste 14 Oeste 0 940.8 0.3 93
2019-04-11 05:00:00 3.7 4 Oeste 9 Noroeste 0 940.6 0.1 94
2019-04-11 04:00:00 4.2 4 Oeste 9 Oeste 0 940.4 0 93
2019-04-11 03:00:00 5 5 Oeste 12 Oeste 0 940.5 0.3 91
2019-04-11 02:00:00 5.6 4 Sudoeste 12 Oeste 0 940.5 0.4 91
2019-04-11 01:00:00 6.3 6 Oeste 15 Oeste 0 940.4 1.1 88
2019-04-11 00:00:00 6.6 6 Sudoeste 16 Sudoeste 0 940.2 1.1 89
2019-04-10 23:00:00 7.6 7 Sudoeste 16 Sudoeste 0 940.1 1.9 86
2019-04-10 22:00:00 7.4 7 Sudoeste 17 Norte 2 939.3 1.4 86
2019-04-10 21:00:00 8.9 13 Norte 27 Norte 0.4 939.1 1.8 78
2019-04-10 20:00:00 10.2 8 Oeste 27 Oeste 0 938.2 0.9 70
2019-04-10 19:00:00 11.3 13 Oeste 32 Oeste 0 937.9 0.8 62
2019-04-10 18:00:00 11.5 11 Oeste 26 Oeste 0 937.3 -0.1 62
2019-04-10 17:00:00 13.4 11 Oeste 52 Noroeste 0 937.3 -0.3 54
2019-04-10 16:00:00 12.9 10 Oeste 37 Sudoeste 0 937.1 -1.2 51
2019-04-10 15:00:00 13.4 14 Oeste 38 Oeste 0 937.4 -1.4 50
2019-04-10 14:00:00 14 10 Oeste 32 Oeste 0 937.6 -1.3 50
2019-04-10 13:00:00 12.4 11 Oeste 26 Oeste 0 938.3 -0.5 59
2019-04-10 12:00:00 10.9 8 Oeste 23 Oeste 0 938.8 0.2 65
2019-04-10 11:00:00 9.4 10 Sudoeste 23 Oeste 0 938.9 0.8 73
2019-04-10 10:00:00 7.3 10 Oeste 23 Oeste 0 938.8 0.8 84
2019-04-10 09:00:00 5.3 11 Oeste 24 Sudoeste 0 938.6 0.7 91
2019-04-10 08:00:00 4.6 10 Sudoeste 21 Oeste 0 938.1 0 94
2019-04-10 07:00:00 4.7 8 Sudoeste 22 Sudoeste 0 938 -0.1 93
2019-04-10 06:00:00 5.2 11 Sudoeste 21 Sudoeste 0 937.9 -0.4 91
2019-04-10 05:00:00 5.7 9 Sudoeste 24 Oeste 0 938.1 -0.3 89
2019-04-10 04:00:00 6.2 12 Oeste 24 Oeste 0 938.1 -0.1 88
2019-04-10 03:00:00 6.6 11 Oeste 23 Oeste 0 938.3 0 86
2019-04-10 02:00:00 6.8 9 Sudoeste 24 Sudoeste 0 938.4 0.1 85
2019-04-10 01:00:00 7.8 9 Sudoeste 23 Sudoeste 0 938.2 0.6 82
2019-04-10 00:00:00 7.5 6 Sudoeste 28 Oeste 0 938.3 1.2 83
2019-04-09 23:00:00 8.4 13 Oeste 28 Oeste 0 938.3 1.9 79
2019-04-09 22:00:00 8.9 15 Oeste 27 Oeste 0 937.6 0.8 79
2019-04-09 21:00:00 9.7 12 Oeste 49 Oeste 0 937.1 0.2 72
2019-04-09 20:00:00 10.3 18 Oeste 42 Oeste 0 936.4 -0.5 73
2019-04-09 19:00:00 11.9 24 Oeste 46 Oeste 0 936.8 0 65
2019-04-09 18:00:00 11.7 26 Oeste 56 Oeste 0 936.9 -0.8 61
2019-04-09 17:00:00 10.8 17 Oeste 45 Noroeste 2 936.9 -1.4 79
2019-04-09 16:00:00 12.5 19 Oeste 42 Oeste 0 936.8 -1.5 59
2019-04-09 15:00:00 10.9 20 Oeste 41 Oeste 0 937.7 -1.3 71
2019-04-09 14:00:00 8.5 21 Oeste 52 Oeste 0.4 938.3 -0.8 86
2019-04-09 13:00:00 12.1 20 Oeste 41 Oeste 0 938.3 -0.9 57
2019-04-09 12:00:00 9.9 17 Oeste 38 Oeste 0 939 -0.2 68
2019-04-09 11:00:00 9.3 17 Oeste 35 Oeste 0 939.1 0.2 73
2019-04-09 10:00:00 8.6 12 Sudoeste 30 Sudoeste 0 939.2 0.4 80
2019-04-09 09:00:00 6.6 10 Sudoeste 22 Sudoeste 0 939.2 0.5 87
2019-04-09 08:00:00 5.4 11 Sudoeste 23 Sudoeste 0 938.9 0.3 91
2019-04-09 07:00:00 5.7 13 Oeste 28 Sudoeste 0 938.8 0.4 90
2019-04-09 06:00:00 6 11 Sudoeste 22 Oeste 0 938.7 0.3 88
2019-04-09 05:00:00 6.4 11 Oeste 26 Sudoeste 0 938.6 0.2 88
2019-04-09 04:00:00 7.6 11 Oeste 30 Sudoeste 0 938.4 0.4 83
2019-04-09 03:00:00 8.2 10 Sudoeste 27 Oeste 0 938.4 0.9 79
2019-04-09 02:00:00 8.5 14 Oeste 30 Sudoeste 0 938.4 1.1 74
2019-04-09 01:00:00 8.7 10 Sudoeste 23 Oeste 0 938 1 70
2019-04-09 00:00:00 9.2 7 Sudoeste 19 Sudoeste 0 937.5 1 69
2019-04-08 23:00:00 10.7 8 Oeste 18 Oeste 0 937.3 1 65
2019-04-08 22:00:00 11.4 10 Oeste 30 Oeste 0 937 1 64
2019-04-08 21:00:00 13 13 Oeste 31 Oeste 0 936.5 0.2 64
2019-04-08 20:00:00 14.9 12 Oeste 40 Oeste 0 936.3 -0.6 54
2019-04-08 19:00:00 15.5 17 Oeste 39 Oeste 0 936 -0.9 52
2019-04-08 18:00:00 15 14 Sudoeste 43 Sudoeste 0 936.3 -1.3 70
2019-04-08 17:00:00 13.4 20 Sudoeste 42 Sudoeste 0 936.9 -1 74
2019-04-08 16:00:00 15.8 15 Oeste 33 Sudoeste 0 936.9 -1.3 61
2019-04-08 15:00:00 14.6 12 Oeste 34 Oeste 0 937.6 -0.9 70
2019-04-08 14:00:00 14 18 Oeste 36 Sudoeste 0 937.9 -0.4 71
2019-04-08 13:00:00 13.2 14 Oeste 37 Sudoeste 0 938.2 0 74
2019-04-08 12:00:00 12.4 17 Oeste 34 Oeste 0 938.5 0.3 78
2019-04-08 11:00:00 11.3 13 Sudoeste 67 Noroeste 0 938.3 0.5 85
2019-04-08 10:00:00 10 15 Oeste 33 Sudoeste 0.2 938.2 0.8 90
2019-04-08 09:00:00 9.6 11 Sudoeste 24 Sudoeste 0 938.2 0.8 93
2019-04-08 08:00:00 9.3 10 Sudoeste 26 Oeste 0.2 937.8 0.2 95
2019-04-08 07:00:00 9.4 14 Sudoeste 28 Sudoeste 1 937.4 -0.3 95
2019-04-08 06:00:00 9.7 12 Sudoeste 23 Sudoeste 0 937.4 -0.4 91
2019-04-08 05:00:00 9.4 13 Sudoeste 24 Sudoeste 0 937.6 -0.5 91
2019-04-08 04:00:00 9.6 12 Sudoeste 28 Sudoeste 0 937.7 -0.7 91
2019-04-08 03:00:00 10 12 Sudoeste 31 Sudoeste 0 937.8 -0.7 91
2019-04-08 02:00:00 9.6 11 Sudoeste 23 Sudoeste 0.2 938.1 -0.5 93
2019-04-08 01:00:00 9.7 9 Sudoeste 20 Sudoeste 0 938.4 -0.1 86
2019-04-08 00:00:00 9.7 9 Sudoeste 17 Sur 0 938.5 0.3 83
2019-04-07 23:00:00 9.9 6 Sudoeste 14 Sudoeste 0 938.6 0.7 80
2019-04-07 22:00:00 9.9 6 Oeste 15 Oeste 0 938.5 1.1 77
2019-04-07 21:00:00 10 8 Oeste 24 Oeste 0 938.2 1.1 73
2019-04-07 20:00:00 10.8 13 Oeste 28 Oeste 0 937.9 1 68
2019-04-07 19:00:00 11.4 17 Oeste 36 Oeste 0 937.4 0.6 59
2019-04-07 18:00:00 12.1 18 Oeste 39 Oeste 0 937.1 0.3 56
2019-04-07 17:00:00 12.8 19 Oeste 42 Sudoeste 0 936.9 0.1 57
2019-04-07 16:00:00 12 19 Oeste 47 Oeste 0 936.8 0.3 56
2019-04-07 15:00:00 11.8 18 Oeste 39 Oeste 0 936.8 0.7 57
2019-04-07 14:00:00 10.7 19 Oeste 38 Oeste 0 936.8 1.2 63
2019-04-07 13:00:00 10.4 17 Oeste 36 Oeste 0 936.5 1 64
2019-04-07 12:00:00 10.3 16 Oeste 40 Sudoeste 0 936.1 1.5 68
2019-04-07 11:00:00 8.3 19 Oeste 36 Oeste 0 935.6 2.1 76
2019-04-07 10:00:00 6.4 12 Oeste 27 Oeste 0 935.5 3 85
2019-04-07 09:00:00 5.6 13 Oeste 30 Oeste 0 934.6 2.4 86
2019-04-07 08:00:00 5.4 12 Oeste 27 Oeste 0 933.5 1.6 90
2019-04-07 07:00:00 5.3 11 Oeste 23 Oeste 0 932.5 0.5 94
2019-04-07 06:00:00 5.2 14 Oeste 30 Oeste 0 932.2 0.4 91
2019-04-07 05:00:00 5.2 14 Oeste 29 Oeste 0 931.9 0 90
2019-04-07 04:00:00 5.4 12 Oeste 30 Oeste 0 932 -0.2 89
2019-04-07 03:00:00 5.3 13 Sudoeste 31 Sudoeste 0 931.8 -0.2 86
2019-04-07 02:00:00 5.1 15 Sudoeste 29 Sudoeste 0 931.9 0.3 85
2019-04-07 01:00:00 5.6 11 Sudoeste 28 Sudoeste 0 932.2 1.3 82
2019-04-07 00:00:00 6 12 Sudoeste 32 Sudoeste 0 932 1.8 78
2019-04-06 23:00:00 6.3 15 Sudoeste 35 Sudoeste 0 931.6 1.9 80
2019-04-06 22:00:00 6.4 14 Sudoeste 35 Sudoeste 0 930.9 1.9 79
2019-04-06 21:00:00 6.9 14 Sudoeste 40 Sudoeste 0 930.2 1.4 75
2019-04-06 20:00:00 7.2 15 Oeste 40 Sudoeste 0 929.7 1.3 71
2019-04-06 19:00:00 7.9 15 Oeste 47 Oeste 0 929 0.1 72
2019-04-06 18:00:00 8.7 20 Oeste 56 Oeste 0 928.8 -0.4 65
2019-04-06 17:00:00 10.9 19 Oeste 46 Oeste 0 928.4 -1.2 57
2019-04-06 16:00:00 10.6 21 Oeste 48 Oeste 0 928.9 -0.4 62
2019-04-06 15:00:00 9 23 Oeste 47 Oeste 0.4 929.2 -0.5 72
2019-04-06 14:00:00 6.7 18 Oeste 50 Oeste 0.6 929.6 0 83
2019-04-06 13:00:00 8.1 20 Oeste 44 Sudoeste 0.2 929.3 -0.3 75
2019-04-06 12:00:00 6.1 18 Sudoeste 43 Sudoeste 0.6 929.7 0.3 89
2019-04-06 11:00:00 6.5 14 Sudoeste 35 Sudoeste 0 929.6 0.7 85
2019-04-06 10:00:00 5.5 15 Sudoeste 33 Sudoeste 0 929.6 1.1 87
2019-04-06 09:00:00 5.2 14 Sudoeste 33 Sudoeste 0 929.4 1.5 87
2019-04-06 08:00:00 4.7 12 Oeste 29 Sudoeste 0 928.9 0.9 87
2019-04-06 07:00:00 4.4 13 Sudoeste 28 Oeste 0 928.5 0.6 89
2019-04-06 06:00:00 4.1 12 Oeste 30 Sudoeste 0 927.9 0 90
2019-04-06 05:00:00 4.3 12 Oeste 31 Oeste 0 928 0 90
2019-04-06 04:00:00 4.7 13 Sudoeste 35 Sudoeste 0 927.9 0 90
2019-04-06 03:00:00 4.8 13 Sudoeste 37 Sudoeste 0 927.9 0 88
2019-04-06 02:00:00 4.9 17 Oeste 37 Sudoeste 0 928 0.5 88
2019-04-06 01:00:00 4.8 13 Sudoeste 30 Sudoeste 0.2 927.9 1 87
2019-04-06 00:00:00 5 16 Oeste 44 Oeste 0 927.9 2 84
2019-04-05 23:00:00 5.1 10 Sudoeste 21 Sudoeste 0 927.5 2.3 75
2019-04-05 22:00:00 5.8 9 Sudoeste 27 Oeste 0 926.9 2.8 72
2019-04-05 21:00:00 6.5 13 Oeste 36 Oeste 0 925.9 2 71
2019-04-05 20:00:00 7.3 16 Oeste 58 Oeste 0 925.2 1 65
2019-04-05 19:00:00 9.5 19 Oeste 40 Noroeste 0 924.1 -0.9 58
2019-04-05 18:00:00 8.1 19 Sudoeste 39 Sudoeste 0 923.9 -1.4 76
2019-04-05 17:00:00 7.4 15 Sudoeste 27 Sudoeste 0 924.2 -0.6 84
2019-04-05 16:00:00 4.8 15 Sur 38 Oeste 2 925 -0.3 95
2019-04-05 15:00:00 7.2 13 Sudoeste 42 Sudoeste 0.4 925.3 -0.1 89
2019-04-05 14:00:00 8.1 20 Sudoeste 42 Sudoeste 0 924.8 -1.2 77
2019-04-05 13:00:00 8.1 22 Sudoeste 37 Sudoeste 0 925.3 -0.1 78
2019-04-05 12:00:00 6.8 21 Sur -- -- -- 925.4 -0.3 85
2019-04-05 11:00:00 7 -- -- -- -- 0.6 926 0.4 88
2019-04-05 10:00:00 8 -- -- -- -- 0 925.4 -0.3 72
2019-04-05 09:00:00 7.7 17 Sudoeste 63 Noroeste 0 925.7 0 68
2019-04-05 08:00:00 7.3 -- -- -- -- 0 925.6 -0.2 70
2019-04-05 07:00:00 7.4 14 Sudoeste 23 Sudoeste 0 925.7 -0.3 70
2019-04-05 06:00:00 7.6 11 Sudoeste 27 Sur 0 925.7 -0.4 66
2019-04-05 05:00:00 7.8 16 Sur -- -- 0 925.8 -0.2 63
2019-04-05 04:00:00 8.7 14 Sudoeste 27 Sudoeste 0 926 0 54
2019-04-05 03:00:00 9.4 12 Sudoeste 23 Sudoeste 0 926.1 0.2 48
2019-04-05 02:00:00 9.7 10 Sudoeste 19 Sudoeste 0 926 0 48
2019-04-05 01:00:00 9.8 9 Sudoeste 23 Sudoeste 0 926 0.2 48
2019-04-05 00:00:00 10.7 12 Sudoeste 25 Sudoeste 0 925.9 0.4 44
2019-04-04 23:00:00 11.1 9 Sudoeste 19 Sudoeste 0 926 0.5 40
2019-04-04 22:00:00 10.8 5 Sudeste 8 Noroeste 0 925.8 -0.1 38
2019-04-04 21:00:00 12.2 5 Noroeste 11 Oeste 0 925.5 -0.9 31
2019-04-04 20:00:00 14.4 4 Oeste 14 Sudoeste 0 925.5 -1.5 25
2019-04-04 19:00:00 15 5 Sur 20 Oeste 0 925.9 -1.9 24
2019-04-04 18:00:00 15.6 9 Oeste 25 Oeste 0 926.4 -2.2 23
2019-04-04 17:00:00 14.6 10 Sur 22 Sur 0 927 -2.1 25
2019-04-04 16:00:00 14 5 Sudoeste 18 Sudoeste 0 927.8 -2 24
2019-04-04 15:00:00 12.9 6 Oeste 17 Oeste 0 928.6 -1.5 29
2019-04-04 14:00:00 12 4 Sur 15 Norte 0 929.1 -0.9 30
2019-04-04 13:00:00 10.3 5 Este 17 Norte 0 929.8 -0.1 31
2019-04-04 12:00:00 9.1 6 Nordeste 16 Norte 0 930.1 0.6 40
2019-04-04 11:00:00 7.7 6 Nordeste 13 Nordeste 0 930 1 52
2019-04-04 10:00:00 5.6 3 Nordeste 6 Norte 0 929.9 1.4 63
2019-04-04 09:00:00 2.7 0 Calma -- -- 0 929.5 1.4 75
2019-04-04 08:00:00 0 0 Calma 5 Sur 0 929 1 83
2019-04-04 07:00:00 1.1 2 Norte 8 Noroeste 0 928.5 0.5 75
2019-04-04 06:00:00 2 0 Calma 6 Noroeste 0 928.1 -0.3 72
2019-04-04 05:00:00 2.6 4 Noroeste 7 Noroeste 0 928 -0.6 69
2019-04-04 04:00:00 3.5 4 Norte 11 Noroeste 0 928 -0.7 64
2019-04-04 03:00:00 5 6 Noroeste 17 Noroeste 0 928.4 -0.2 58
2019-04-04 02:00:00 6.7 8 Norte 14 Norte 0 928.6 -0.2 57
2019-04-04 01:00:00 8.3 5 Noroeste 12 Noroeste 0 928.7 0.4 46
2019-04-04 00:00:00 9.3 5 Noroeste 17 Noroeste 0 928.6 1.1 43
2019-04-03 23:00:00 9.9 6 Noroeste 18 Norte 0 928.8 1.9 42
2019-04-03 22:00:00 10.6 7 Noroeste 19 Noroeste 0 928.3 1.4 46
2019-04-03 21:00:00 12.8 8 Norte -- -- 0 927.5 0.4 42
2019-04-03 20:00:00 15.5 23 Oeste -- -- 0 926.9 -0.7 30
2019-04-03 19:00:00 17.3 21 Oeste 50 Noroeste 0 926.9 -1.3 26
2019-04-03 18:00:00 18.4 21 Oeste 49 Oeste 0 927.1 -2.1 25
2019-04-03 17:00:00 18.6 25 Oeste 49 Oeste 0 927.6 -2.3 24
2019-04-03 16:00:00 18.8 21 Oeste 49 Oeste 0 928.2 -2.6 22
2019-04-03 15:00:00 18.1 22 Oeste 47 Oeste 0 929.2 -2.4 29
2019-04-03 14:00:00 17.2 22 Oeste -- -- 0 929.9 -2.4 37
2019-04-03 13:00:00 16.3 -- -- -- -- 0 930.8 -2.1 42
2019-04-03 12:00:00 15.3 17 Oeste 35 Oeste 0 931.6 -1.7 47
2019-04-03 11:00:00 13.4 11 Sudoeste 27 Sudoeste 0 932.3 -1.2 61
2019-04-03 10:00:00 11.5 11 Oeste 24 Sudoeste 0 932.9 -0.9 71
2019-04-03 09:00:00 9.6 11 Sudoeste 23 Sudoeste 0 933.3 -0.7 75
2019-04-03 08:00:00 8.3 10 Sudoeste 22 Sudoeste 0 933.5 -1.3 78
2019-04-03 07:00:00 8.3 9 Sudoeste 18 Sudoeste 0 933.8 -1.7 78
2019-04-03 06:00:00 9.2 9 Sudoeste 20 Sudoeste 0 934 -2.1 74
2019-04-03 05:00:00 9.4 10 Sudoeste 21 Sudoeste 0 934.8 -1.9 75
2019-04-03 04:00:00 10 -- -- -- -- 0 935.5 -1.7 74
2019-04-03 03:00:00 10.2 9 Sudoeste 19 Sudoeste 0 936.1 -1.6 78
2019-04-03 02:00:00 10.3 7 Sudoeste 15 Sudoeste 0 936.7 -1.1 80
2019-04-03 01:00:00 10.6 8 Sudoeste 14 Sudoeste 0 937.2 -0.4 80
2019-04-03 00:00:00 9.1 4 Sudeste 12 Sur 0 937.7 0.1 87
2019-04-02 23:00:00 11.7 8 Sur 15 Sur 0 937.8 0.5 77
2019-04-02 22:00:00 12.2 3 Sur -- -- 0 937.6 0.5 74
2019-04-02 21:00:00 13.3 8 Norte 26 Norte 0 937.6 0.5 70
2019-04-02 20:00:00 16.1 8 Oeste 26 Oeste 0 937.3 -0.2 51
2019-04-02 19:00:00 17 10 Oeste 26 Oeste 0 937.1 -1.1 48
2019-04-02 18:00:00 18 9 Oeste 25 Noroeste 0 937.1 -1.8 51
2019-04-02 17:00:00 17 10 Oeste 27 Oeste 0 937.5 -2.1 60
2019-04-02 16:00:00 16.6 11 Sudoeste -- -- 0 938.2 -2.1 53
2019-04-02 15:00:00 16.4 9 Oeste -- -- 0 938.9 -1.6 58
2019-04-02 14:00:00 15.2 9 Sudoeste -- -- 0 939.6 -0.8 66
2019-04-02 13:00:00 13.6 -- -- -- -- 0 940.3 0.2 76
2019-04-02 12:00:00 12.5 -- -- -- -- 0 940.5 0.7 81
2019-04-02 11:00:00 11.3 12 Sudoeste 22 Sudoeste 0 940.4 1.1 85
2019-04-02 10:00:00 10.3 10 Sudoeste 20 Sudoeste 0 940.1 0.9 87
2019-04-02 09:00:00 9.5 6 Sudoeste 14 Sudoeste 0 939.8 0.7 91
2019-04-02 08:00:00 9.1 5 Sudoeste 13 Sudoeste 0 939.3 -0.3 95
2019-04-02 07:00:00 7.5 0 Calma 5 Nordeste 0 939.2 -0.2 95
2019-04-02 06:00:00 8.9 3 Norte 13 Sudoeste 0 939.1 -0.4 93
2019-04-02 05:00:00 9.8 6 Sudoeste 13 Sur 0 939.6 -0.1 90
2019-04-02 04:00:00 9.6 5 Sudoeste 12 Sur 0 939.4 -0.5 90
2019-04-02 03:00:00 9.6 8 Sudoeste 17 Sudoeste 0 939.5 -0.4 91
2019-04-02 02:00:00 9.7 10 Sur 16 Sur 0 939.7 -0.3 92
2019-04-02 01:00:00 9.8 6 Sur 11 Oeste 0 939.9 0.8 93
2019-04-02 00:00:00 10 5 Oeste 14 Noroeste 0.4 939.9 1.9 95
2019-04-01 23:00:00 9.8 9 Oeste -- -- 2.4 940 3 94
2019-04-01 22:00:00 11.8 14 Sur 23 Sudoeste 0 939.1 2.1 75
2019-04-01 21:00:00 12.4 4 Sudeste 11 Este 0 938 0.7 79
2019-04-01 20:00:00 14.3 6 Este -- -- 0 937 -0.6 73
2019-04-01 19:00:00 15.5 -- -- -- -- 0 937 -0.8 63
2019-04-01 18:00:00 14.1 9 Sur 50 Noroeste 0 937.3 -0.3 74
2019-04-01 17:00:00 11.4 14 Sur 25 Sur 0.6 937.6 -0.4 89
2019-04-01 16:00:00 11.4 10 Oeste 24 Oeste 4.2 937.8 -0.5 90
2019-04-01 15:00:00 15.6 8 Oeste 15 Oeste 0 937.6 -0.7 60
2019-04-01 14:00:00 14.4 5 Oeste 13 Sudoeste 0 938 0.1 70
2019-04-01 13:00:00 13.7 5 Noroeste 13 Oeste 0 938.3 0.9 72
2019-04-01 12:00:00 12.4 6 Sudoeste -- -- 0 938.3 1.1 78
2019-04-01 11:00:00 11 -- -- -- -- 0 937.9 1.2 89
2019-04-01 10:00:00 9.7 2 Este 7 Sur 0 937.4 1.2 96
2019-04-01 09:00:00 7.3 4 Sur -- -- 0 937.2 1.1 97
2019-04-01 08:00:00 7.9 2 Sudoeste -- -- 0 936.7 0.5 97
2019-04-01 07:00:00 8.3 4 Oeste -- -- 0 936.2 -0.2 96
2019-04-01 06:00:00 8.7 4 Este 7 Nordeste 0 936.1 -0.3 95
2019-04-01 05:00:00 8.7 6 Este 11 Este 0 936.2 -0.4 94
2019-04-01 04:00:00 8.8 7 Nordeste 13 Este 0 936.4 -0.2 94
2019-04-01 03:00:00 8.9 10 Este 18 Este 0 936.4 -0.3 94
2019-04-01 02:00:00 8.8 12 Este 23 Este 0.2 936.6 0 95
2019-04-01 01:00:00 8.8 13 Este 19 Este 0.2 936.6 0.4 94
2019-04-01 00:00:00 8.9 13 Este 24 Este 0 936.7 0.9 93
2019-03-31 23:00:00 8.9 16 Este 23 Este 0 936.6 1.2 93
2019-03-31 22:00:00 8.9 13 Este 22 Este 0 936.2 0.8 95
2019-03-31 21:00:00 9.2 15 Este 28 Este 0 935.8 0.4 91
2019-03-31 20:00:00 9.6 18 Este 62 Norte 0 935.4 -0.1 87
2019-03-31 19:00:00 9.9 20 Este 32 Este 0 935.4 -0.5 87
2019-03-31 18:00:00 10.2 24 Este 57 Norte 0 935.4 -1.2 88
2019-03-31 17:00:00 10.5 21 Este 32 Este 0 935.5 -1.6 86
2019-03-31 16:00:00 10.6 21 Este 32 Este 0 935.9 -1.6 84
2019-03-31 15:00:00 9.8 20 Este 68 Este 0 936.6 -1.1 87
2019-03-31 14:00:00 9.7 21 Este 63 Este 0 937.1 -0.4 88
2019-03-31 13:00:00 9.1 20 Este 28 Este 1 937.5 0.2 90
2019-03-31 12:00:00 7.8 19 Este 36 Este 1 937.7 0.5 91
2019-03-31 11:00:00 7.2 26 Este 39 Este 1 937.5 0.5 90
2019-03-31 10:00:00 6.9 24 Este 37 Este 1 937.3 0.3 91
2019-03-31 09:00:00 6.8 22 Este 37 Este 0.8 937.2 -0.1 92
2019-03-31 08:00:00 6.6 26 Este 37 Este 0 937 -0.7 88
2019-03-31 07:00:00 7.8 20 Este 26 Este 0 937 -1.1 83
2019-03-31 06:00:00 8.4 17 Este 25 Este 0 937.3 -1.4 80
2019-03-31 05:00:00 8.2 16 Nordeste 25 Este 0 937.7 -1.6 79
2019-03-31 03:00:00 8.4 16 Este 26 Este 0 938.7 -1.1 76
2019-03-31 01:00:00 8.1 22 Este 33 Este 0 939.3 -0.1 77
2019-03-31 00:00:00 9 21 Este 27 Este 0 939.5 -0.1 73
2019-03-30 23:00:00 11.2 11 Nordeste 28 Este 0 939.8 1 52
2019-03-30 22:00:00 12.6 17 Este 31 Este 0 939.4 0.9 50
2019-03-30 21:00:00 14.1 21 Este 33 Este 0 939.6 1.2 47
2019-03-30 20:00:00 15.5 19 Este 54 Sur 0 938.8 0.4 41
2019-03-30 19:00:00 16.9 26 Este 67 Este 0 938.5 -0.7 35
2019-03-30 18:00:00 17.9 24 Este 35 Este 0 938.4 -1.7 33
2019-03-30 17:00:00 19.2 25 Este 37 Nordeste 0 938.4 -2.6 31
2019-03-30 16:00:00 18.5 22 Este 38 Este 0 939.2 -2.6 32
2019-03-30 15:00:00 18.4 22 Este 36 Nordeste 0 940.1 -2.8 34
2019-03-30 14:00:00 17.6 24 Este 40 Nordeste 0 941 -2.5 36
2019-03-30 13:00:00 16.6 21 Este 34 Este 0 941.8 -1.8 41
2019-03-30 12:00:00 15 20 Este 31 Este 0 942.9 -0.9 46
2019-03-30 11:00:00 12.6 20 Este 34 Este 0 943.5 -0.3 51
2019-03-30 10:00:00 9.9 24 Este 32 Este 0 943.6 -0.1 65
2019-03-30 09:00:00 7.7 20 Este 26 Este 0 943.8 0.1 72
2019-03-30 08:00:00 5.3 15 Este 27 Este 0 943.8 0.1 83
2019-03-30 07:00:00 4.6 15 Este 20 Este 0 943.7 -0.2 84
2019-03-30 06:00:00 5.3 15 Este 22 Este 0 943.7 -0.6 78
2019-03-30 05:00:00 5.8 13 Nordeste 19 Este 0 943.7 -1 71
2019-03-30 04:00:00 6.7 14 Este 21 Este 0 943.9 -1.1 63
2019-03-30 03:00:00 7.9 14 Este 21 Este 0 944.3 -0.8 57
2019-03-30 02:00:00 8 12 Este 22 Este 0 944.7 -0.4 55
2019-03-30 01:00:00 7.3 13 Este 19 Este 0 945 0.1 62
2019-03-30 00:00:00 8.1 16 Este 24 Este 0 945.1 0.6 62
2019-03-29 23:00:00 8.5 15 Este 27 Este 0 945.1 1.3 59
2019-03-29 22:00:00 9.8 17 Este 24 Este 0 944.9 1.4 55
2019-03-29 21:00:00 10.5 9 Este 24 Este 0 944.5 1 50
2019-03-29 20:00:00 12.7 18 Este 39 Este 0 943.8 0.2 42
2019-03-29 19:00:00 15.1 27 Este 40 Este 0 943.5 -0.4 34
2019-03-29 18:00:00 16.2 31 Este 43 Este 0 943.5 -0.9 32
2019-03-29 17:00:00 17.3 26 Este 42 Este 0 943.6 -1.4 28
2019-03-29 16:00:00 17.5 22 Este 37 Este 0 943.9 -1.7 27
2019-03-29 15:00:00 16.7 20 Este 37 Este 0 944.4 -2.1 29
2019-03-29 14:00:00 17.6 18 Este 36 Este 0 945 -2.2 25
2019-03-29 13:00:00 16.4 15 Este 31 Este 0 945.6 -1.9 26
2019-03-29 12:00:00 15.2 13 Sudeste 54 Sur 0 946.5 -1.2 29
2019-03-29 11:00:00 13.2 22 Este 37 Este 0 947.2 -0.3 34
2019-03-29 10:00:00 10.6 24 Este 50 Nordeste 0 947.5 0.4 49
2019-03-29 09:00:00 6.2 22 Este 31 Este 0 947.7 0.7 63
2019-03-29 08:00:00 2.6 19 Este 27 Este 0 947.5 0.5 71
2019-03-29 07:00:00 1.7 20 Este 30 Este 0 947.1 0 73
2019-03-29 06:00:00 2.2 19 Este 29 Este 0 947 -0.4 79
2019-03-29 05:00:00 1.7 17 Este 23 Nordeste 0 947 -0.7 72
2019-03-29 04:00:00 2.4 15 Este 22 Este 0 947.1 -0.7 67
2019-03-29 03:00:00 2.7 14 Este 18 Este 0 947.4 -0.3 61
2019-03-29 02:00:00 3 8 Nordeste 14 Este 0 947.7 0.2 49
2019-03-29 01:00:00 4.1 6 Este 12 Este 0 947.8 0.4 42
2019-03-29 00:00:00 7.7 9 Sudeste 16 Sudeste 0 947.7 0.7 32
2019-03-28 23:00:00 9.7 11 Sudeste 17 Sudeste 0 947.5 1.1 27
2019-03-28 22:00:00 10.8 10 Sudeste 18 Sudeste 0 947.4 1.2 26
2019-03-28 21:00:00 11.6 11 Sudeste 19 Sudeste 0 947 0.9 27
2019-03-28 20:00:00 14.3 12 Sudeste 27 Este 0 946.4 0.4 23
2019-03-28 19:00:00 16.3 21 Este 33 Este 0 946.2 -0.3 20
2019-03-28 18:00:00 17.5 21 Este 39 Este 0 946.1 -1 18
2019-03-28 17:00:00 18.1 22 Este 58 Sur 0 946 -1.6 17
2019-03-28 16:00:00 18.3 22 Este 41 Nordeste 0 946.5 -1.6 16
2019-03-28 15:00:00 18.3 23 Este 42 Este 0 947.1 -1.6 15
2019-03-28 14:00:00 17.9 19 Este 35 Este 0 947.6 -1.7 18
2019-03-28 13:00:00 17 21 Este 49 Sur 0 948.1 -1.4 18
2019-03-28 12:00:00 15.4 20 Este 35 Este 0 948.7 -0.8 22
2019-03-28 11:00:00 13 23 Este 34 Este 0 949.3 -0.1 27
2019-03-28 10:00:00 10.1 22 Este 35 Nordeste 0 949.5 0.3 37
2019-03-28 09:00:00 5 12 Nordeste 18 Nordeste 0 949.5 0.7 56
2019-03-28 08:00:00 -0.2 12 Nordeste 16 Nordeste 0 949.4 0.9 70
2019-03-28 07:00:00 -1.8 8 Nordeste 10 Nordeste 0 949.2 0.8 78
2019-03-28 06:00:00 -1.6 7 Este 14 Este 0 948.8 0.5 73
2019-03-28 05:00:00 -1.1 6 Nordeste 11 Este 0 948.5 0.1 68
2019-03-28 04:00:00 -0.7 4 Nordeste 8 Nordeste 0 948.4 0.1 66
2019-03-28 03:00:00 1 6 Nordeste 14 Nordeste 0 948.3 0.4 61
2019-03-28 02:00:00 1.6 7 Nordeste 10 Nordeste 0 948.4 1.1 55
2019-03-28 01:00:00 2.6 8 Nordeste 11 Nordeste 0 948.3 1.7 51
2019-03-28 00:00:00 4.9 6 Este 10 Este 0 947.9 1.9 48
2019-03-27 23:00:00 5.2 5 Este 9 Sudeste 0 947.3 1.9 35
2019-03-27 22:00:00 8 5 Sur 11 Sudeste 0 946.6 1.5 32
2019-03-27 21:00:00 9.8 6 Sudeste 9 Este 0 946 1.2 28
2019-03-27 20:00:00 12.3 6 Este 21 Este 0 945.4 0.7 23
2019-03-27 19:00:00 15.2 14 Sudeste 76 Norte 0 945.1 0 18
2019-03-27 18:00:00 16.5 22 Este 41 Este 0 944.8 -0.6 16
2019-03-27 17:00:00 17.2 23 Este 38 Este 0 944.7 -1.3 14
2019-03-27 16:00:00 16.4 21 Este 42 Este 0 945.1 -1.4 17
2019-03-27 15:00:00 16.3 24 Este 41 Este 0 945.4 -1.2 18
2019-03-27 14:00:00 15.8 24 Este 40 Este 0 946 -0.8 16
2019-03-27 13:00:00 14.8 21 Este 39 Este 0 946.5 -0.1 20
2019-03-27 12:00:00 14.1 22 Este 33 Este 0 946.6 -0.1 24
2019-03-27 11:00:00 11.9 18 Este 30 Este 0 946.8 0.6 33
2019-03-27 10:00:00 8.9 18 Este 28 Este 0 946.6 1.2 55
2019-03-27 09:00:00 6.5 20 Este 27 Este 0 946.7 1.8 68
2019-03-27 08:00:00 2.7 12 Este 61 Nordeste 0 946.2 2 80
2019-03-27 07:00:00 2.2 18 Este 25 Este 0 945.4 1.3 83
2019-03-27 06:00:00 2.7 18 Este 28 Este 0 944.9 0.5 81
2019-03-27 05:00:00 3.7 22 Este 39 Este 0 944.2 -0.3 78
2019-03-27 04:00:00 4.6 17 Este 30 Este 0 944.1 -0.4 76
2019-03-27 03:00:00 5.4 23 Este 39 Este 0 944.4 0.5 76
2019-03-27 02:00:00 5.7 23 Este 34 Este 0 944.5 1.1 77
2019-03-27 01:00:00 6.4 27 Este 42 Este 0 944.5 2 72
2019-03-27 00:00:00 7.8 21 Este 30 Este 0 943.9 2.2 76
2019-03-26 23:00:00 8.3 17 Este 24 Este 0 943.4 2.3 66
2019-03-26 22:00:00 8.9 11 Este 20 Sudeste 0 942.5 2 53
2019-03-26 21:00:00 12.5 15 Sudeste 36 Sudeste 0 941.7 1.8 39
2019-03-26 20:00:00 14.2 18 Este 40 Este 0 941.1 1.5 32
2019-03-26 19:00:00 16.5 28 Este 63 Este 0 940.5 0.9 31
2019-03-26 18:00:00 18.3 33 Este 59 Este 0 939.9 -0.1 30
2019-03-26 17:00:00 19.5 36 Este 52 Este 0 939.6 -0.6 28
2019-03-26 16:00:00 19.7 33 Este 48 Este 0 939.6 -1.4 27
2019-03-26 15:00:00 19.8 33 Este 53 Este 0 940 -1.2 28
2019-03-26 14:00:00 19.3 36 Este 57 Este 0 940.2 -1.2 28
2019-03-26 13:00:00 17.8 36 Este 53 Este 0 941 -0.2 29
2019-03-26 12:00:00 16.5 39 Este 51 Este 0 941.2 -0.1 29
2019-03-26 11:00:00 15.3 35 Este 46 Este 0 941.4 0.4 31
2019-03-26 10:00:00 13.2 32 Este 48 Este 0 941.2 0.9 35
2019-03-26 09:00:00 10.1 26 Este 36 Este 0 941.3 1.2 44
2019-03-26 08:00:00 5.4 16 Nordeste 57 Norte 0 941 0.7 60
2019-03-26 07:00:00 4.4 15 Este 22 Este 0 940.3 0.1 62
2019-03-26 06:00:00 3.4 12 Nordeste 17 Nordeste 0 940.1 -0.3 64
2019-03-26 05:00:00 4.4 9 Nordeste 18 Este 0 940.3 -0.2 60
2019-03-26 04:00:00 4.2 7 Nordeste 17 Norte 0 940.2 -0.4 57
2019-03-26 03:00:00 4.9 9 Norte 18 Nordeste 0 940.4 -0.4 55
2019-03-26 02:00:00 4.1 6 Este 11 Nordeste 0 940.5 -0.2 52
2019-03-26 01:00:00 6.3 4 Nordeste 5 Norte 0 940.6 0.3 42
2019-03-26 00:00:00 7.8 2 Este 14 Sur 0 940.8 0.8 38
2019-03-25 23:00:00 9.3 6 Sudeste 21 Norte 0 940.7 0.8 36
2019-03-25 22:00:00 10 2 Sudeste 10 Sudeste 0 940.3 0.4 34
2019-03-25 21:00:00 13.5 7 Sur 10 Sur 0 940 0.1 27
2019-03-25 20:00:00 16.6 6 Sudeste 17 Sudeste 0 939.9 -0.3 21
2019-03-25 19:00:00 19.1 11 Sudeste 27 Este 0 939.9 -0.9 17
2019-03-25 18:00:00 20.6 17 Este 33 Este 0 939.9 -1.6 15
2019-03-25 17:00:00 21.1 18 Este 30 Nordeste 0 940.2 -2.3 14
2019-03-25 16:00:00 20.9 16 Este 33 Nordeste 0 940.8 -2.5 14
2019-03-25 15:00:00 20.8 13 Este 33 Este 0 941.5 -2.6 14
2019-03-25 14:00:00 20.4 17 Este 30 Este 0 942.5 -2.2 15
2019-03-25 13:00:00 19.8 14 Este 28 Este 0 943.3 -1.7 20
2019-03-25 12:00:00 18.3 17 Nordeste 27 Nordeste 0 944.1 -0.5 23
2019-03-25 11:00:00 15.9 12 Este 18 Nordeste 0 944.7 -0.2 28
2019-03-25 10:00:00 12.4 9 Nordeste 28 Nordeste 0 945 0.5 37
2019-03-25 09:00:00 7.7 4 Nordeste 8 Este 0 944.6 0.1 56
2019-03-25 08:00:00 2.3 5 Nordeste 8 Este 0 944.9 0.3 71
2019-03-25 07:00:00 1.1 5 Este 9 Este 0 944.5 -0.4 75
2019-03-25 06:00:00 0.9 6 Este 11 Este 0 944.5 -0.5 79
2019-03-25 05:00:00 1.5 5 Este 12 Nordeste 0 944.6 -0.5 78
2019-03-25 04:00:00 1.4 6 Nordeste 12 Nordeste 0 944.9 -0.4 74
2019-03-25 03:00:00 2.7 5 Nordeste 8 Este 0 945 -0.1 72
2019-03-25 02:00:00 3.7 5 Sudeste 10 Este 0 945.1 -0.2 70
2019-03-25 01:00:00 4.6 5 Este 9 Este 0 945.3 0.3 66
2019-03-25 00:00:00 6.3 4 Nordeste 9 Norte 0 945.1 0.4 58